Amunt
Inicio > meteoXarxa
Fes-te'n soci

METEOXARXA

Almenara
Ubicació
Comarca la Plana Baixa
Altitud (msnm) 20
Posició geogràfica 39° 45' 2.16" N, 00° 13' 31.80" W
Model Davis Vantage Pro2
Presa de dades
Font de les dades El temps. Almenara
Estadístiques. Resum
Data Temperatura (ºC) Humitat (%) Pressió (hPa) Vent (km/h) Precipit. (mm)
Mínima Mitjana Màxima Mínima Mitjana Màxima Mínima Mitjana Màxima Predom. Mitjana Ràfega màxima Total Dies de pluja
Mínima Mitjana Màxima Mínima Mitjana Màxima
Últimes dades diàries
24-02-2017 10,5     13,1     15,6 NE 3,4 17,7 13,4  
23-02-2017 11,3     14,7     18,1 WNW 4,0 40,2 0,0  
22-02-2017 8,3     13,3     18,4 ESE 2,9 16,1 0,0  
21-02-2017 6,8     12,2     17,7 WNW 5,5 19,3 0,0  
20-02-2017 7,2     12,1     16,9 WNW 5,1 20,9 0,0  
19-02-2017 8,9     12,3     15,7 NNE 6,3 30,6 0,0  
18-02-2017 6,9     11,1     15,3 WNW 6,1 19,3 0,0  
17-02-2017 7,5     11,8     16,1 WNW 4,7 20,9 0,0  
16-02-2017 9,8     12,9     15,9 ESE 3,2 20,9 0,0  
15-02-2017 8,1     12,1     16,2 WNW 4,8 20,9 0,0  
14-02-2017 8,7     13,2     17,7 WNW 4,3 17,7 0,0  
13-02-2017 9,9     13,3     16,6 ENE 7,1 51,5 8,4  
12-02-2017 13,2     14,8     16,3 ENE 12,1 43,5 0,0  
11-02-2017 10,8     12,3     13,7 NE 10,3 43,5 0,0  
10-02-2017 7,3     10,5     13,7 WNW 5,5 22,5 0,0  
09-02-2017 7,9     11,8     15,6 WNW 9,5 46,7 0,0  
08-02-2017 10,6     13,5     16,4 WNW 17,2 61,2 0,0  
07-02-2017 14,1     18,7     23,3 WNW 12,2 45,1 0,0  
06-02-2017 11,6     16,1     20,7 WNW 17,1 54,7 0,0  
05-02-2017 12,1     15,3     18,5 WNW 24,6 74,0 0,4  
04-02-2017 16,2     18,5     20,7 SW 20,4 62,8 0,0  
03-02-2017 10,0     15,1     20,1 SW 12,9 51,5 0,2  
02-02-2017 8,2     11,1     14,1 SSW 4,5 29,0 3,0  
01-02-2017 8,4     11,6     14,7 WNW 2,4 14,5 0,0  
31-01-2017 8,9     12,0     15,0 WNW 2,7 16,1 0,0  
30-01-2017 9,3     13,2     17,0 ESE 2,4 16,1 0,0  
29-01-2017 7,2     11,6     16,0 WNW 3,4 20,9 0,0  
28-01-2017 9,0     12,8     16,6 WNW 4,7 33,8 2,6  
27-01-2017 9,0     12,4     15,7 WNW 5,6 32,2 14,2  
26-01-2017 5,1     8,4     11,6 NNE 5,3 22,5 0,0  
25-01-2017 5,0     9,6     14,2 NNE 4,7 25,7 0,0  
24-01-2017 6,1     10,3     14,6 WNW 3,4 19,3 0,0  
Dades del mes en curs (actualitzades fins l'últim dia disponible)
02/2017 6,8 9,8 16,2 13,4 13,7 17,0 23,3   8,6 74,0 25,4  
Últimes dades mensuals
01/2017 1,2 6,9 11,1 11,0 9,7 15,1 22,9 6,7 74,0 153,6 6
12/2016 4,7 9,3 15,6 12,6 12,0 16,6 19,0 5,3 66,0 156,6 10
11/2016 6,4 11,3 16,9 15,0 13,8 18,9 25,4 6,1 57,9 135,2 10
10/2016 12,2 17,1 19,9 20,4 19,9 23,8 27,2 4,6 33,8 15,0 10
09/2016 15,3 19,9 24,6 23,8 24,7 27,4 33,7 5,8 51,5 27,4 4
08/2016 18,7 22,0 25,7 25,6 24,9 28,7 32,2 6,2 37,0 1,6 5
07/2016 18,4 21,9 24,4 25,6 25,3 28,6 31,4 6,2 35,4 3,4 4
06/2016 14,7 19,0 22,4 22,8 22,8 26,1 32,3 6,5 54,7 0,4 1
05/2016 9,3 14,6 18,6 18,5 17,6 22,1 31,6 6,6 53,1 30,2 9
04/2016 7,3 12,2 16,2 16,1 15,5 19,9 26,7 7,0 54,7 23,2 10
03/2016 6,0 9,7 13,5 13,9 12,8 18,4 26,5 7,0 64,4 6,0 8
02/2016 3,3 9,3 19,1 13,8 12,1 18,4 24,8 8,3 86,9 7,8 7
01/2016 4,5 9,7 14,8 13,6 12,9 17,7 22,2 6,9 62,8 1,0 4
Dades de l'any en curs (actualitzades fins l'últim dia disponible)
2017 1,2 8,2 16,2 12,0 9,7 15,9 23,3   7,5 74,0 179,0  
Últimes dades anuals
2016 3,3 14,7 25,7 18,5 12,0 22,2 33,7 6,4 86,9 407,8 82
2017 1,2 6,8 11,1 10,8 9,7 15,0 22,9 7,1 74,0 153,6 6